Time;durP1;ratioP1;P1;durP2;ratioP2;P2;SDS_P1;SDS_P2;PMS_P1;PMS_P2;Temp;Humidity;BMP_temperature;BMP_pressure;BME280_temperature;BME280_humidity;BME280_pressure;Samples;Min_cycle;Max_cycle;Signal;HPM_P1;HPM_P2
2022/10/12 00:00:10;;;;;;;7.85;5.90;;;;;;;;;;5038636;28;20061;-75
2022/10/12 00:02:42;;;;;;;5.72;5.20;;;;;;;;;;5031260;28;20041;-76
2022/10/12 00:05:09;;;;;;;9.93;5.85;;;;;;;;;;5035619;28;20041;-76
2022/10/12 00:07:36;;;;;;;10.65;5.82;;;;;;;;;;5029144;28;20049;-75
2022/10/12 00:10:04;;;;;;;9.63;5.28;;;;;;;;;;5035035;28;20041;-76
2022/10/12 00:12:31;;;;;;;6.78;5.32;;;;;;;;;;5041217;28;20163;-76
2022/10/12 00:14:59;;;;;;;8.73;5.97;;;;;;;;;;5048814;28;20041;-75
2022/10/12 00:17:26;;;;;;;6.60;5.40;;;;;;;;;;5047540;28;20563;-75
2022/10/12 00:19:53;;;;;;;8.55;6.00;;;;;;;;;;5044675;28;20049;-75
2022/10/12 00:22:20;;;;;;;7.78;6.00;;;;;;;;;;5037437;28;20065;-75
2022/10/12 00:24:48;;;;;;;7.75;5.05;;;;;;;;;;5040103;28;20506;-75
2022/10/12 00:27:15;;;;;;;6.90;5.35;;;;;;;;;;5023900;28;20137;-75
2022/10/12 00:29:42;;;;;;;16.08;5.78;;;;;;;;;;5046264;28;20049;-75
2022/10/12 00:32:09;;;;;;;8.23;5.40;;;;;;;;;;5038619;28;20045;-75
2022/10/12 00:34:36;;;;;;;11.43;5.63;;;;;;;;;;5039846;28;20048;-75
2022/10/12 00:37:04;;;;;;;12.90;5.85;;;;;;;;;;5003270;28;20067;-75
2022/10/12 00:39:31;;;;;;;9.00;5.43;;;;;;;;;;5056288;28;20151;-75
2022/10/12 00:41:58;;;;;;;6.13;5.53;;;;;;;;;;5026267;28;20048;-75
2022/10/12 00:44:41;;;;;;;8.02;5.65;;;;;;;;;;5045676;28;20044;-75
2022/10/12 00:47:17;;;;;;;9.50;5.50;;;;;;;;;;5045861;28;20052;-75
2022/10/12 00:49:47;;;;;;;9.45;4.95;;;;;;;;;;5041831;28;20049;-75
2022/10/12 00:52:15;;;;;;;11.45;6.00;;;;;;;;;;5028486;28;20052;-75
2022/10/12 00:54:45;;;;;;;16.40;6.05;;;;;;;;;;5042335;28;20045;-75
2022/10/12 00:57:14;;;;;;;12.90;6.40;;;;;;;;;;5043025;28;20041;-75
2022/10/12 00:59:47;;;;;;;7.88;6.03;;;;;;;;;;5036614;28;20068;-75
2022/10/12 01:02:14;;;;;;;6.10;5.47;;;;;;;;;;5046737;28;20043;-75
2022/10/12 01:04:42;;;;;;;10.15;5.65;;;;;;;;;;5027382;28;20041;-75
2022/10/12 01:07:09;;;;;;;6.70;5.85;;;;;;;;;;5048293;28;20040;-75
2022/10/12 01:09:36;;;;;;;15.25;5.93;;;;;;;;;;5035229;28;20536;-75
2022/10/12 01:12:04;;;;;;;9.70;6.05;;;;;;;;;;5043934;28;20044;-75
2022/10/12 01:14:31;;;;;;;9.95;6.07;;;;;;;;;;5036265;28;20143;-75
2022/10/12 01:16:58;;;;;;;12.35;5.82;;;;;;;;;;5045819;28;20052;-75
2022/10/12 01:19:37;;;;;;;7.32;6.32;;;;;;;;;;5010571;28;20047;-76
2022/10/12 01:22:06;;;;;;;8.18;6.50;;;;;;;;;;5049128;28;20434;-75
2022/10/12 01:24:38;;;;;;;13.30;5.75;;;;;;;;;;5044022;28;20132;-75
2022/10/12 01:27:17;;;;;;;8.45;5.70;;;;;;;;;;5037735;28;20056;-75
2022/10/12 01:29:47;;;;;;;7.93;6.30;;;;;;;;;;5021371;28;20136;-75
2022/10/12 01:32:23;;;;;;;8.65;5.55;;;;;;;;;;5048703;28;20040;-75
2022/10/12 01:34:56;;;;;;;10.55;5.85;;;;;;;;;;5040467;28;20511;-75
2022/10/12 01:37:31;;;;;;;7.32;5.65;;;;;;;;;;5028485;28;20045;-75
2022/10/12 01:40:00;;;;;;;7.15;6.10;;;;;;;;;;5030298;28;20116;-75
2022/10/12 01:42:29;;;;;;;9.95;6.00;;;;;;;;;;5014544;28;20114;-75
2022/10/12 01:45:01;;;;;;;9.15;6.15;;;;;;;;;;5028462;28;20462;-75
2022/10/12 01:47:28;;;;;;;7.38;5.78;;;;;;;;;;5040718;28;20522;-75
2022/10/12 01:49:56;;;;;;;6.97;5.85;;;;;;;;;;5012208;28;20076;-75
2022/10/12 01:52:26;;;;;;;8.90;5.60;;;;;;;;;;5063100;28;20040;-75
2022/10/12 01:54:57;;;;;;;8.65;6.18;;;;;;;;;;5034064;28;20041;-75
2022/10/12 01:57:36;;;;;;;14.02;5.97;;;;;;;;;;5046109;28;20029;-75
2022/10/12 02:00:06;;;;;;;10.68;5.90;;;;;;;;;;5043817;28;20041;-75
2022/10/12 02:02:37;;;;;;;12.13;5.80;;;;;;;;;;5044856;28;20072;-75
2022/10/12 02:05:27;;;;;;;7.82;6.07;;;;;;;;;;4990331;28;20088;-75
2022/10/12 02:08:13;;;;;;;9.82;5.85;;;;;;;;;;5029092;28;20517;-75
2022/10/12 02:10:47;;;;;;;7.38;5.93;;;;;;;;;;5042326;28;20127;-75
2022/10/12 02:13:15;;;;;;;8.93;5.57;;;;;;;;;;5034698;28;20041;-76
2022/10/12 02:15:43;;;;;;;10.88;6.13;;;;;;;;;;5047868;28;20293;-76
2022/10/12 02:18:13;;;;;;;11.15;5.93;;;;;;;;;;5048967;28;20106;-76
2022/10/12 02:20:41;;;;;;;7.90;6.38;;;;;;;;;;5041870;28;20514;-76
2022/10/12 02:23:16;;;;;;;9.68;6.15;;;;;;;;;;5026817;28;20052;-76
2022/10/12 02:25:44;;;;;;;9.20;6.32;;;;;;;;;;5054682;28;20045;-76
2022/10/12 02:28:14;;;;;;;8.60;5.80;;;;;;;;;;5028302;28;20042;-76
2022/10/12 02:30:44;;;;;;;6.70;5.53;;;;;;;;;;5043314;28;20048;-76
2022/10/12 02:33:18;;;;;;;8.90;6.22;;;;;;;;;;5049041;28;20059;-76
2022/10/12 02:35:52;;;;;;;9.02;5.85;;;;;;;;;;5047604;28;20128;-76
2022/10/12 02:38:21;;;;;;;8.48;5.70;;;;;;;;;;5057548;28;20037;-76
2022/10/12 02:40:57;;;;;;;12.27;6.32;;;;;;;;;;5025078;28;20522;-76
2022/10/12 02:43:32;;;;;;;11.98;6.03;;;;;;;;;;5049368;28;20067;-76
2022/10/12 02:46:00;;;;;;;9.05;5.53;;;;;;;;;;5033741;28;20068;-76
2022/10/12 02:48:28;;;;;;;7.63;5.43;;;;;;;;;;5030087;28;20448;-76
2022/10/12 02:50:56;;;;;;;9.15;5.78;;;;;;;;;;5045814;28;20045;-76
2022/10/12 02:53:24;;;;;;;11.90;5.90;;;;;;;;;;5015509;28;20045;-76
2022/10/12 02:55:54;;;;;;;8.82;5.65;;;;;;;;;;5030864;28;20041;-76
2022/10/12 02:58:22;;;;;;;7.57;5.97;;;;;;;;;;5046746;28;20053;-76
2022/10/12 03:00:49;;;;;;;6.38;5.43;;;;;;;;;;5041427;28;20576;-76
2022/10/12 03:03:16;;;;;;;8.00;5.72;;;;;;;;;;5031146;28;20049;-76
2022/10/12 03:05:44;;;;;;;10.30;5.95;;;;;;;;;;5033755;28;20451;-76
2022/10/12 03:08:11;;;;;;;8.10;5.90;;;;;;;;;;5024339;28;20081;-76
2022/10/12 03:10:38;;;;;;;8.13;6.50;;;;;;;;;;5036210;28;20103;-76
2022/10/12 03:13:05;;;;;;;10.43;5.53;;;;;;;;;;5040234;28;20061;-76
2022/10/12 03:15:33;;;;;;;10.55;6.45;;;;;;;;;;5044371;28;20038;-76
2022/10/12 03:18:00;;;;;;;8.10;6.15;;;;;;;;;;5025234;28;20057;-76
2022/10/12 03:20:27;;;;;;;11.70;6.57;;;;;;;;;;5047796;28;20045;-76
2022/10/12 03:22:54;;;;;;;15.45;6.38;;;;;;;;;;5031809;28;20814;-76
2022/10/12 03:25:22;;;;;;;7.68;6.55;;;;;;;;;;5035206;28;20081;-76
2022/10/12 03:27:49;;;;;;;9.82;6.60;;;;;;;;;;5037556;28;20056;-76
2022/10/12 03:30:16;;;;;;;9.02;6.68;;;;;;;;;;5037430;28;20053;-76
2022/10/12 03:32:43;;;;;;;10.35;6.28;;;;;;;;;;5021244;28;20544;-76
2022/10/12 03:35:11;;;;;;;8.05;6.25;;;;;;;;;;5035049;28;20033;-76
2022/10/12 03:37:38;;;;;;;7.75;6.07;;;;;;;;;;5039724;28;20086;-76
2022/10/12 03:40:06;;;;;;;12.57;5.60;;;;;;;;;;5048488;28;20472;-76
2022/10/12 03:42:34;;;;;;;9.35;6.22;;;;;;;;;;5016817;28;20115;-76
2022/10/12 03:45:01;;;;;;;16.13;6.55;;;;;;;;;;5044383;28;20308;-76
2022/10/12 03:47:28;;;;;;;6.55;5.90;;;;;;;;;;5045295;28;20069;-76
2022/10/12 03:49:55;;;;;;;8.40;6.45;;;;;;;;;;5043355;28;20053;-76
2022/10/12 03:52:23;;;;;;;13.15;6.40;;;;;;;;;;5043600;28;20055;-76
2022/10/12 03:54:50;;;;;;;8.88;6.30;;;;;;;;;;5045874;28;20414;-76
2022/10/12 03:57:18;;;;;;;12.48;6.30;;;;;;;;;;5012390;28;20037;-76
2022/10/12 03:59:45;;;;;;;10.38;6.93;;;;;;;;;;5020913;28;20144;-76
2022/10/12 04:02:12;;;;;;;7.40;6.13;;;;;;;;;;5037636;28;20144;-76
2022/10/12 04:04:43;;;;;;;10.13;7.00;;;;;;;;;;5023810;28;20054;-76
2022/10/12 04:07:11;;;;;;;11.70;6.57;;;;;;;;;;5041794;28;20386;-76
2022/10/12 04:09:38;;;;;;;11.23;7.00;;;;;;;;;;5047090;28;20037;-76
2022/10/12 04:12:05;;;;;;;8.30;6.55;;;;;;;;;;5050193;28;20064;-76
2022/10/12 04:14:32;;;;;;;10.25;6.78;;;;;;;;;;5038272;28;20297;-76
2022/10/12 04:17:00;;;;;;;8.65;7.18;;;;;;;;;;5042458;28;20136;-76
2022/10/12 04:19:27;;;;;;;7.95;6.53;;;;;;;;;;5052224;28;20037;-77
2022/10/12 04:21:54;;;;;;;14.13;7.35;;;;;;;;;;5038374;28;20060;-76
2022/10/12 04:24:22;;;;;;;10.68;7.18;;;;;;;;;;5054282;28;20049;-76
2022/10/12 04:26:49;;;;;;;12.45;7.53;;;;;;;;;;5023473;28;20140;-76
2022/10/12 04:29:16;;;;;;;17.80;7.32;;;;;;;;;;5019495;28;20483;-76
2022/10/12 04:31:43;;;;;;;8.38;7.50;;;;;;;;;;5025514;28;20036;-76
2022/10/12 04:34:11;;;;;;;9.93;7.72;;;;;;;;;;5043776;28;20061;-76
2022/10/12 04:36:38;;;;;;;14.55;7.88;;;;;;;;;;5036732;28;20554;-78
2022/10/12 04:39:05;;;;;;;12.07;7.78;;;;;;;;;;5049601;28;20037;-76
2022/10/12 04:41:33;;;;;;;13.57;8.43;;;;;;;;;;5051257;28;20125;-76
2022/10/12 04:44:00;;;;;;;11.75;7.70;;;;;;;;;;5040299;28;20029;-76
2022/10/12 04:46:27;;;;;;;9.38;8.18;;;;;;;;;;5046077;28;20041;-76
2022/10/12 04:48:55;;;;;;;13.77;7.65;;;;;;;;;;5024471;28;20072;-76
2022/10/12 04:51:25;;;;;;;15.90;7.80;;;;;;;;;;5021520;28;20086;-76
2022/10/12 04:53:53;;;;;;;10.38;7.47;;;;;;;;;;5041407;28;20041;-76
2022/10/12 04:56:20;;;;;;;13.63;8.23;;;;;;;;;;5042164;28;20127;-75
2022/10/12 04:58:47;;;;;;;11.90;8.32;;;;;;;;;;5019068;28;20125;-76
2022/10/12 05:01:14;;;;;;;10.63;8.38;;;;;;;;;;5034040;28;20050;-79
2022/10/12 05:03:42;;;;;;;10.93;8.23;;;;;;;;;;5014247;28;20047;-76
2022/10/12 05:06:09;;;;;;;12.68;8.40;;;;;;;;;;5017902;28;20140;-75
2022/10/12 05:08:36;;;;;;;13.73;8.25;;;;;;;;;;5031699;28;20422;-78
2022/10/12 05:11:04;;;;;;;10.02;8.40;;;;;;;;;;5013846;28;20217;-77
2022/10/12 05:13:31;;;;;;;12.90;9.57;;;;;;;;;;5037264;28;20140;-75
2022/10/12 05:15:58;;;;;;;13.35;9.77;;;;;;;;;;5038246;28;20518;-76
2022/10/12 05:18:25;;;;;;;14.00;8.93;;;;;;;;;;5031636;28;20068;-76
2022/10/12 05:20:53;;;;;;;13.30;9.63;;;;;;;;;;5039763;28;20041;-76
2022/10/12 05:23:23;;;;;;;13.57;8.85;;;;;;;;;;5041551;28;20095;-81
2022/10/12 05:25:50;;;;;;;13.52;9.30;;;;;;;;;;5041803;28;20076;-75
2022/10/12 05:28:18;;;;;;;15.05;9.75;;;;;;;;;;5040753;28;20048;-76
2022/10/12 05:30:49;;;;;;;13.57;9.10;;;;;;;;;;5032877;28;20146;-77
2022/10/12 05:33:16;;;;;;;14.90;8.98;;;;;;;;;;5013874;28;20044;-76
2022/10/12 05:35:44;;;;;;;16.83;11.02;;;;;;;;;;5009888;28;20128;-77
2022/10/12 05:41:05;;;;;;;9.77;8.77;;;;;;;;;;4992242;28;20108;-81
2022/10/12 05:43:35;;;;;;;15.75;9.57;;;;;;;;;;4994348;28;20081;-82
2022/10/12 05:46:03;;;;;;;12.07;10.25;;;;;;;;;;4985531;28;20123;-82
2022/10/12 05:48:32;;;;;;;17.38;9.18;;;;;;;;;;4964764;28;20102;-82
2022/10/12 05:50:59;;;;;;;15.15;8.15;;;;;;;;;;4974219;28;20052;-83
2022/10/12 05:53:26;;;;;;;9.65;7.90;;;;;;;;;;4978455;28;20038;-82
2022/10/12 05:55:58;;;;;;;15.30;8.27;;;;;;;;;;4992828;28;20035;-81
2022/10/12 05:58:26;;;;;;;12.27;7.95;;;;;;;;;;4987366;28;20039;-81
2022/10/12 06:00:54;;;;;;;8.95;7.00;;;;;;;;;;4990220;28;20047;-81
2022/10/12 06:03:22;;;;;;;11.10;8.60;;;;;;;;;;4979729;28;20070;-81
2022/10/12 06:05:52;;;;;;;12.38;7.80;;;;;;;;;;4991295;28;20043;-82
2022/10/12 06:08:20;;;;;;;11.65;8.25;;;;;;;;;;4978819;28;20042;-81
2022/10/12 06:10:49;;;;;;;13.35;8.48;;;;;;;;;;4980397;28;20560;-81
2022/10/12 06:13:18;;;;;;;14.75;9.00;;;;;;;;;;4980736;28;20038;-83
2022/10/12 06:15:46;;;;;;;11.43;9.10;;;;;;;;;;4961954;28;20046;-81
2022/10/12 06:18:14;;;;;;;14.88;8.68;;;;;;;;;;4992552;28;20799;-81
2022/10/12 06:20:46;;;;;;;9.82;8.82;;;;;;;;;;4983741;28;20078;-83
2022/10/12 06:23:13;;;;;;;9.33;8.47;;;;;;;;;;4985291;28;20033;-81
2022/10/12 06:25:41;;;;;;;10.23;8.43;;;;;;;;;;4992688;28;20309;-82
2022/10/12 06:28:09;;;;;;;11.68;8.82;;;;;;;;;;4975981;28;20086;-84
2022/10/12 06:30:36;;;;;;;12.20;8.43;;;;;;;;;;4994449;28;20128;-81
2022/10/12 06:33:03;;;;;;;11.43;8.07;;;;;;;;;;4992843;28;20122;-81
2022/10/12 06:35:32;;;;;;;12.35;8.00;;;;;;;;;;4975745;28;20519;-82
2022/10/12 06:38:00;;;;;;;12.73;8.27;;;;;;;;;;4987900;28;20749;-82
2022/10/12 06:40:27;;;;;;;11.07;7.90;;;;;;;;;;4993666;28;20476;-81
2022/10/12 06:42:55;;;;;;;12.20;7.45;;;;;;;;;;4991438;28;20038;-84
2022/10/12 06:45:26;;;;;;;13.70;8.27;;;;;;;;;;4976229;28;20042;-80
2022/10/12 06:47:53;;;;;;;13.35;7.82;;;;;;;;;;4993464;28;20038;-82
2022/10/12 06:50:20;;;;;;;11.07;8.18;;;;;;;;;;4993310;28;20054;-82
2022/10/12 06:52:47;;;;;;;12.48;7.97;;;;;;;;;;4996615;28;20129;-82
2022/10/12 06:55:14;;;;;;;10.50;8.75;;;;;;;;;;4991283;28;20089;-82
2022/10/12 06:57:42;;;;;;;12.70;8.73;;;;;;;;;;4993733;28;20074;-82
2022/10/12 07:00:09;;;;;;;13.57;7.95;;;;;;;;;;4991966;28;20077;-83
2022/10/12 07:02:36;;;;;;;9.80;7.70;;;;;;;;;;4974078;28;20065;-80
2022/10/12 07:05:04;;;;;;;10.23;7.43;;;;;;;;;;4970321;28;20039;-81
2022/10/12 07:07:32;;;;;;;14.27;7.70;;;;;;;;;;4992213;28;20528;-83
2022/10/12 07:10:00;;;;;;;9.15;7.65;;;;;;;;;;4990137;28;20053;-80
2022/10/12 07:12:27;;;;;;;8.23;6.95;;;;;;;;;;4986779;28;20499;-80
2022/10/12 07:14:54;;;;;;;8.65;7.60;;;;;;;;;;4987803;28;20034;-82
2022/10/12 07:17:22;;;;;;;11.50;7.10;;;;;;;;;;4971908;28;20149;-80
2022/10/12 07:19:49;;;;;;;9.52;7.05;;;;;;;;;;4989228;28;20046;-81
2022/10/12 07:22:17;;;;;;;11.60;6.80;;;;;;;;;;4991605;28;20104;-81
2022/10/12 07:24:44;;;;;;;9.40;6.22;;;;;;;;;;4997111;28;20121;-80
2022/10/12 07:27:11;;;;;;;8.88;6.57;;;;;;;;;;4994323;28;20499;-82
2022/10/12 07:29:39;;;;;;;7.82;6.32;;;;;;;;;;4995397;28;20435;-80
2022/10/12 07:32:07;;;;;;;8.43;5.90;;;;;;;;;;4994170;28;20081;-81
2022/10/12 07:34:34;;;;;;;10.02;6.68;;;;;;;;;;4996757;28;20047;-82
2022/10/12 07:37:01;;;;;;;8.90;7.07;;;;;;;;;;4995584;28;20070;-80
2022/10/12 07:39:29;;;;;;;11.93;6.22;;;;;;;;;;4977383;28;20054;-81
2022/10/12 07:41:56;;;;;;;12.20;6.47;;;;;;;;;;4997988;28;20623;-84
2022/10/12 07:44:23;;;;;;;7.65;6.57;;;;;;;;;;4993874;28;20500;-81
2022/10/12 07:46:51;;;;;;;10.98;6.63;;;;;;;;;;4994103;28;20047;-83
2022/10/12 07:49:21;;;;;;;10.88;5.78;;;;;;;;;;4988525;28;20046;-81
2022/10/12 07:51:48;;;;;;;6.85;6.15;;;;;;;;;;4995000;28;20046;-82
2022/10/12 07:54:16;;;;;;;11.48;5.75;;;;;;;;;;4992600;28;20517;-81
2022/10/12 07:56:48;;;;;;;7.38;5.82;;;;;;;;;;4981401;28;20222;-81
2022/10/12 07:59:15;;;;;;;10.30;6.30;;;;;;;;;;4981610;28;20081;-84
2022/10/12 08:01:42;;;;;;;8.00;5.43;;;;;;;;;;4993231;28;20046;-82
2022/10/12 08:04:10;;;;;;;10.43;5.85;;;;;;;;;;4988521;28;20045;-85
2022/10/12 08:06:37;;;;;;;8.80;5.78;;;;;;;;;;4971394;28;20534;-84
2022/10/12 08:09:05;;;;;;;6.30;5.68;;;;;;;;;;4987262;28;20038;-82
2022/10/12 08:11:43;;;;;;;7.18;5.75;;;;;;;;;;4983809;28;20488;-82
2022/10/12 08:14:15;;;;;;;10.30;6.15;;;;;;;;;;4997008;28;20076;-84
2022/10/12 08:16:46;;;;;;;12.55;5.97;;;;;;;;;;4989835;28;20097;-82
2022/10/12 08:19:17;;;;;;;10.02;6.07;;;;;;;;;;4994973;28;20133;-82
2022/10/12 08:21:49;;;;;;;8.98;6.03;;;;;;;;;;4979768;28;20054;-82
2022/10/12 08:24:19;;;;;;;10.48;7.00;;;;;;;;;;4995589;28;20046;-81
2022/10/12 08:26:47;;;;;;;9.90;7.82;;;;;;;;;;4997161;28;20531;-81
2022/10/12 08:29:15;;;;;;;11.30;5.90;;;;;;;;;;4998994;28;20129;-81
2022/10/12 08:31:42;;;;;;;9.60;5.47;;;;;;;;;;4998532;28;20046;-86
2022/10/12 08:34:10;;;;;;;7.53;5.65;;;;;;;;;;4981539;28;20046;-83
2022/10/12 08:36:38;;;;;;;7.72;6.00;;;;;;;;;;4996935;28;20081;-82
2022/10/12 08:39:07;;;;;;;9.85;6.10;;;;;;;;;;4992426;28;20042;-82
2022/10/12 08:41:54;;;;;;;6.43;5.25;;;;;;;;;;4954972;28;20428;-83
2022/10/12 08:44:41;;;;;;;8.15;6.20;;;;;;;;;;4987855;28;20101;-81
2022/10/12 08:47:32;;;;;;;10.35;5.80;;;;;;;;;;4994390;28;20170;-82
2022/10/12 08:50:02;;;;;;;13.15;7.60;;;;;;;;;;4974136;28;20045;-84
2022/10/12 08:52:33;;;;;;;8.45;7.03;;;;;;;;;;4990569;28;20146;-81
2022/10/12 08:55:05;;;;;;;7.13;6.43;;;;;;;;;;4982221;28;20053;-80
2022/10/12 08:57:34;;;;;;;8.25;6.47;;;;;;;;;;4994170;28;20050;-82
2022/10/12 09:00:01;;;;;;;7.15;6.40;;;;;;;;;;4973296;28;20046;-82
2022/10/12 09:02:45;;;;;;;9.18;6.10;;;;;;;;;;4963699;28;20116;-82
2022/10/12 09:05:23;;;;;;;9.07;6.10;;;;;;;;;;5002052;28;20053;-82
2022/10/12 09:07:57;;;;;;;8.55;6.63;;;;;;;;;;5000673;28;20416;-82
2022/10/12 09:10:37;;;;;;;8.45;7.38;;;;;;;;;;4967276;28;20042;-82
2022/10/12 09:13:08;;;;;;;7.93;7.03;;;;;;;;;;4976864;28;20122;-82
2022/10/12 09:15:42;;;;;;;7.47;6.78;;;;;;;;;;4982207;28;20088;-81
2022/10/12 09:18:31;;;;;;;7.07;6.38;;;;;;;;;;5010396;28;20033;-81
2022/10/12 09:21:06;;;;;;;9.80;7.70;;;;;;;;;;5011453;28;20068;-83
2022/10/12 09:23:38;;;;;;;7.95;6.30;;;;;;;;;;5007438;28;20050;-83
2022/10/12 09:26:16;;;;;;;6.82;5.97;;;;;;;;;;5000288;28;20046;-83
2022/10/12 09:28:45;;;;;;;7.10;6.03;;;;;;;;;;5005000;28;20057;-82
2022/10/12 09:31:12;;;;;;;12.02;7.10;;;;;;;;;;4986528;28;20049;-82
2022/10/12 09:33:44;;;;;;;12.82;7.63;;;;;;;;;;4997321;28;20186;-82
2022/10/12 09:36:13;;;;;;;13.02;6.82;;;;;;;;;;4986376;28;20038;-82
2022/10/12 09:38:41;;;;;;;14.57;7.78;;;;;;;;;;4988703;28;20118;-81
2022/10/12 09:41:16;;;;;;;11.88;7.30;;;;;;;;;;4985837;28;20414;-82
2022/10/12 09:43:44;;;;;;;8.70;7.03;;;;;;;;;;4991169;28;20491;-81
2022/10/12 09:46:14;;;;;;;9.07;7.50;;;;;;;;;;4998195;28;20124;-83
2022/10/12 09:48:56;;;;;;;9.63;7.57;;;;;;;;;;4992043;28;20049;-82
2022/10/12 09:51:24;;;;;;;11.85;7.43;;;;;;;;;;4988104;28;20053;-81
2022/10/12 09:53:53;;;;;;;9.00;7.35;;;;;;;;;;4992305;28;20428;-81
2022/10/12 09:56:29;;;;;;;13.43;8.40;;;;;;;;;;4975800;28;20085;-80
2022/10/12 09:59:00;;;;;;;11.43;7.88;;;;;;;;;;4978593;28;20050;-80
2022/10/12 10:01:28;;;;;;;9.63;6.85;;;;;;;;;;4993099;28;20042;-81
2022/10/12 10:04:07;;;;;;;12.52;8.30;;;;;;;;;;4978665;28;20038;-81
2022/10/12 10:06:36;;;;;;;9.57;7.55;;;;;;;;;;4987348;28;20054;-81
2022/10/12 10:09:05;;;;;;;11.85;7.78;;;;;;;;;;4993809;28;20125;-83
2022/10/12 10:11:32;;;;;;;8.05;6.90;;;;;;;;;;4996440;28;20046;-80
2022/10/12 10:14:01;;;;;;;11.25;7.90;;;;;;;;;;4991703;28;20034;-79
2022/10/12 10:16:29;;;;;;;11.88;8.38;;;;;;;;;;4991053;28;20449;-81
2022/10/12 10:18:57;;;;;;;13.27;7.80;;;;;;;;;;4990717;28;20128;-81
2022/10/12 10:21:27;;;;;;;10.52;8.57;;;;;;;;;;4991225;28;20039;-81
2022/10/12 10:23:58;;;;;;;10.98;7.72;;;;;;;;;;4988182;28;20042;-83
2022/10/12 10:26:26;;;;;;;12.15;8.52;;;;;;;;;;4987524;28;20479;-80
2022/10/12 10:29:14;;;;;;;13.50;8.02;;;;;;;;;;4989227;28;20034;-79
2022/10/12 10:31:44;;;;;;;12.65;8.30;;;;;;;;;;4992957;28;20042;-80
2022/10/12 10:34:12;;;;;;;11.70;7.85;;;;;;;;;;4978737;28;20052;-82
2022/10/12 10:36:43;;;;;;;11.20;8.20;;;;;;;;;;5000546;28;20034;-81
2022/10/12 10:39:18;;;;;;;11.52;7.97;;;;;;;;;;4957318;28;20054;-81
2022/10/12 10:41:45;;;;;;;10.77;8.07;;;;;;;;;;4951616;28;20126;-80
2022/10/12 10:44:24;;;;;;;10.68;8.93;;;;;;;;;;4973692;28;20500;-80
2022/10/12 10:47:02;;;;;;;12.82;9.55;;;;;;;;;;4969973;28;20050;-81
2022/10/12 10:49:36;;;;;;;10.50;8.20;;;;;;;;;;4995688;28;20050;-81
2022/10/12 10:52:04;;;;;;;10.75;8.52;;;;;;;;;;4993153;28;20062;-82
2022/10/12 10:54:34;;;;;;;9.40;8.38;;;;;;;;;;4996921;28;20054;-80
2022/10/12 10:57:10;;;;;;;12.65;10.85;;;;;;;;;;5002383;28;20069;-80
2022/10/12 10:59:57;;;;;;;9.18;8.27;;;;;;;;;;4983357;28;20042;-81
2022/10/12 11:02:47;;;;;;;9.55;8.38;;;;;;;;;;5004297;28;20125;-82
2022/10/12 11:05:18;;;;;;;11.77;8.80;;;;;;;;;;4996837;28;20053;-81
2022/10/12 11:07:50;;;;;;;11.00;9.10;;;;;;;;;;4995362;28;20056;-81
2022/10/12 11:10:23;;;;;;;12.40;8.65;;;;;;;;;;4994783;28;20042;-82
2022/10/12 11:12:54;;;;;;;10.27;8.45;;;;;;;;;;5000614;28;20042;-80
2022/10/12 11:15:33;;;;;;;9.52;8.57;;;;;;;;;;4988676;28;20042;-81
2022/10/12 11:18:04;;;;;;;11.85;8.30;;;;;;;;;;4991821;28;20034;-82
2022/10/12 11:20:47;;;;;;;13.18;8.68;;;;;;;;;;4990822;28;20042;-83
2022/10/12 11:23:15;;;;;;;12.35;8.80;;;;;;;;;;4968729;28;20050;-81
2022/10/12 11:25:53;;;;;;;9.32;7.35;;;;;;;;;;4993567;28;20508;-80
2022/10/12 11:28:21;;;;;;;14.25;9.02;;;;;;;;;;4959777;28;20046;-83
2022/10/12 11:30:50;;;;;;;11.15;7.75;;;;;;;;;;4993060;28;20046;-79
2022/10/12 11:33:22;;;;;;;20.98;15.65;;;;;;;;;;4994579;28;20042;-81
2022/10/12 11:35:50;;;;;;;9.70;8.75;;;;;;;;;;4994891;28;20093;-80
2022/10/12 11:38:32;;;;;;;10.98;8.60;;;;;;;;;;4979032;28;20755;-82
2022/10/12 11:41:18;;;;;;;10.10;8.25;;;;;;;;;;5069639;23;20052;-84
2022/10/12 11:44:15;;;;;;;9.98;8.40;;;;;;;;;;5024700;28;20505;-84
2022/10/12 11:46:53;;;;;;;11.95;8.00;;;;;;;;;;5014626;28;20524;-83
2022/10/12 11:49:40;;;;;;;8.82;7.90;;;;;;;;;;5024750;28;20068;-84
2022/10/12 11:52:09;;;;;;;10.05;8.10;;;;;;;;;;5005321;28;20099;-84
2022/10/12 11:54:41;;;;;;;10.38;8.40;;;;;;;;;;5009392;28;20128;-84
2022/10/12 11:57:12;;;;;;;12.55;7.50;;;;;;;;;;5009575;28;20050;-85
2022/10/12 11:59:40;;;;;;;;;;;;;;;;;;5024897;28;20104;-84
2022/10/12 12:02:14;;;;;;;14.98;7.75;;;;;;;;;;5021789;28;19925;-84
2022/10/12 12:04:43;;;;;;;11.23;7.80;;;;;;;;;;5028427;28;20112;-84
2022/10/12 12:07:30;;;;;;;11.15;7.35;;;;;;;;;;5026954;28;20440;-84
2022/10/12 12:09:57;;;;;;;8.27;7.38;;;;;;;;;;5025116;28;20060;-84
2022/10/12 12:12:26;;;;;;;9.10;7.63;;;;;;;;;;5006191;28;20079;-84
2022/10/12 12:14:53;;;;;;;8.23;7.43;;;;;;;;;;5027862;28;20115;-84
2022/10/12 12:17:21;;;;;;;10.73;7.95;;;;;;;;;;5025831;28;20113;-84
2022/10/12 12:19:55;;;;;;;8.27;7.47;;;;;;;;;;5038052;28;20025;-84
2022/10/12 12:22:23;;;;;;;10.00;8.48;;;;;;;;;;5025713;28;20045;-83
2022/10/12 12:24:51;;;;;;;10.65;7.63;;;;;;;;;;5018905;28;20497;-84
2022/10/12 12:27:25;;;;;;;9.00;7.70;;;;;;;;;;5033671;28;20492;-84
2022/10/12 12:30:05;;;;;;;10.75;7.93;;;;;;;;;;5011883;28;20798;-85
2022/10/12 12:32:41;;;;;;;10.65;7.50;;;;;;;;;;5019263;28;20048;-85
2022/10/12 12:35:17;;;;;;;10.43;7.93;;;;;;;;;;5030150;28;20049;-84
2022/10/12 12:37:48;;;;;;;9.88;7.10;;;;;;;;;;5010740;28;20084;-85
2022/10/12 12:40:23;;;;;;;9.93;7.20;;;;;;;;;;5013904;28;20065;-84
2022/10/12 12:42:50;;;;;;;12.05;7.72;;;;;;;;;;5017354;28;20543;-84
2022/10/12 12:45:31;;;;;;;9.98;7.75;;;;;;;;;;5027809;28;20131;-85
2022/10/12 12:47:58;;;;;;;11.43;7.47;;;;;;;;;;5033008;28;20108;-85
2022/10/12 12:50:29;;;;;;;8.63;7.55;;;;;;;;;;5013633;28;20107;-85
2022/10/12 12:53:02;;;;;;;8.60;7.73;;;;;;;;;;5030878;28;20132;-85
2022/10/12 12:55:37;;;;;;;12.00;8.05;;;;;;;;;;5031868;28;20423;-85
2022/10/12 12:58:28;;;;;;;10.40;6.88;;;;;;;;;;5025845;28;20733;-85
2022/10/12 13:01:08;;;;;;;12.10;7.47;;;;;;;;;;4972368;28;20425;-85
2022/10/12 13:03:50;;;;;;;10.57;6.93;;;;;;;;;;5025715;28;20440;-84
2022/10/12 13:06:29;;;;;;;9.82;7.65;;;;;;;;;;5006856;28;20072;-85
2022/10/12 13:09:10;;;;;;;10.02;7.68;;;;;;;;;;5032007;22;20056;-74
2022/10/12 13:11:45;;;;;;;12.32;7.43;;;;;;;;;;4994833;28;20037;-74
2022/10/12 13:14:31;;;;;;;9.43;7.22;;;;;;;;;;4999506;28;20048;-75
2022/10/12 13:16:58;;;;;;;8.75;6.80;;;;;;;;;;4986045;28;20077;-74
2022/10/12 13:19:45;;;;;;;10.05;6.95;;;;;;;;;;4987968;28;20079;-75
2022/10/12 13:22:20;;;;;;;9.82;7.20;;;;;;;;;;5005385;28;20041;-75
2022/10/12 13:24:52;;;;;;;8.48;7.07;;;;;;;;;;5003617;28;20147;-75
2022/10/12 13:27:19;;;;;;;;;;;;;;;;;;4985845;28;20126;-76
2022/10/12 13:29:54;;;;;;;7.70;6.40;;;;;;;;;;4999461;28;19968;-75
2022/10/12 13:32:28;;;;;;;10.23;6.40;;;;;;;;;;5005753;28;20500;-75
2022/10/12 13:34:56;;;;;;;8.60;6.72;;;;;;;;;;5004650;28;20038;-75
2022/10/12 13:37:28;;;;;;;7.80;7.00;;;;;;;;;;4989188;28;20531;-75
2022/10/12 13:39:56;;;;;;;10.38;6.80;;;;;;;;;;4989967;28;20034;-76
2022/10/12 13:42:26;;;;;;;8.75;6.70;;;;;;;;;;4988661;28;20133;-76
2022/10/12 13:44:54;;;;;;;8.73;6.53;;;;;;;;;;4984566;28;20042;-75
2022/10/12 13:47:22;;;;;;;10.15;7.00;;;;;;;;;;5000075;28;20494;-76
2022/10/12 13:49:49;;;;;;;12.05;7.03;;;;;;;;;;5006219;28;20180;-77
2022/10/12 13:52:17;;;;;;;7.38;6.22;;;;;;;;;;5000191;28;20133;-75
2022/10/12 13:54:47;;;;;;;10.75;6.50;;;;;;;;;;5007107;28;20321;-75
2022/10/12 13:57:30;;;;;;;7.40;6.03;;;;;;;;;;5004821;28;20042;-75
2022/10/12 14:00:01;;;;;;;13.57;6.50;;;;;;;;;;5007015;28;20038;-76
2022/10/12 14:02:31;;;;;;;8.82;7.07;;;;;;;;;;4991231;28;20097;-75
2022/10/12 14:05:00;;;;;;;8.90;6.38;;;;;;;;;;4979309;28;20065;-75
2022/10/12 14:07:34;;;;;;;11.70;6.95;;;;;;;;;;4990958;28;20581;-75
2022/10/12 14:10:19;;;;;;;7.97;7.22;;;;;;;;;;5003753;28;20735;-75
2022/10/12 14:12:49;;;;;;;16.25;7.35;;;;;;;;;;5005719;28;20566;-76
2022/10/12 14:15:17;;;;;;;10.68;7.13;;;;;;;;;;4981458;28;20042;-76
2022/10/12 14:17:46;;;;;;;10.32;7.57;;;;;;;;;;5007318;28;20100;-76
2022/10/12 14:20:26;;;;;;;10.07;7.50;;;;;;;;;;4984023;28;20042;-76
2022/10/12 14:22:54;;;;;;;13.68;6.97;;;;;;;;;;5002017;28;20380;-75
2022/10/12 14:25:23;;;;;;;13.10;8.07;;;;;;;;;;4991949;28;20176;-76
2022/10/12 14:28:13;;;;;;;8.45;7.30;;;;;;;;;;5011381;28;20041;-76
2022/10/12 14:30:50;;;;;;;10.13;7.05;;;;;;;;;;5003640;28;20145;-76
2022/10/12 14:33:18;;;;;;;13.88;9.48;;;;;;;;;;5002578;28;20037;-75
2022/10/12 14:35:47;;;;;;;9.13;8.10;;;;;;;;;;4993490;28;20140;-76
2022/10/12 14:38:33;;;;;;;9.43;7.88;;;;;;;;;;5011130;28;20503;-77
2022/10/12 14:41:19;;;;;;;11.77;7.97;;;;;;;;;;4975136;28;20093;-76
2022/10/12 14:44:02;;;;;;;12.02;7.90;;;;;;;;;;5011905;28;20128;-76
2022/10/12 14:46:53;;;;;;;9.50;7.32;;;;;;;;;;4992851;28;20038;-76
2022/10/12 14:49:23;;;;;;;12.30;7.63;;;;;;;;;;5009387;28;20045;-75
2022/10/12 14:51:51;;;;;;;9.38;7.25;;;;;;;;;;5007356;28;20128;-76
2022/10/12 14:54:18;;;;;;;8.80;7.25;;;;;;;;;;4992137;28;20153;-76
2022/10/12 14:56:46;;;;;;;11.15;7.78;;;;;;;;;;5009274;28;20096;-75
2022/10/12 14:59:13;;;;;;;12.32;7.43;;;;;;;;;;5007517;28;20034;-77